Time;durP1;ratioP1;P1;durP2;ratioP2;P2;SDS_P1;SDS_P2;PMS_P1;PMS_P2;Temp;Humidity;BMP_temperature;BMP_pressure;BME280_temperature;BME280_humidity;BME280_pressure;Samples;Min_cycle;Max_cycle;Signal;HPM_P1;HPM_P2
2023/07/06 00:01:11;;;;;;;16.70;11.80;;;24.60;93.90;;;;;;4979746;28;20061;-81
2023/07/06 00:03:38;;;;;;;14.25;12.70;;;24.60;94.10;;;;;;4966441;28;20023;-82
2023/07/06 00:06:08;;;;;;;19.83;12.38;;;24.60;94.60;;;;;;4976259;28;20026;-82
2023/07/06 00:08:34;;;;;;;17.00;13.85;;;24.60;94.60;;;;;;4983173;28;20038;-83
2023/07/06 00:11:00;;;;;;;19.85;14.43;;;24.50;95.10;;;;;;4985453;28;20125;-81
2023/07/06 00:13:26;;;;;;;17.00;13.17;;;24.50;95.30;;;;;;4962081;28;20448;-83
2023/07/06 00:15:52;;;;;;;18.80;13.90;;;24.50;95.50;;;;;;4981815;28;20066;-82
2023/07/06 00:18:20;;;;;;;18.10;14.30;;;24.50;95.60;;;;;;4944446;28;20030;-82
2023/07/06 00:20:49;;;;;;;19.13;13.43;;;24.30;95.80;;;;;;4939835;29;20515;-82
2023/07/06 00:23:15;;;;;;;17.40;13.88;;;24.30;96.00;;;;;;4950285;29;20035;-82
2023/07/06 00:25:41;;;;;;;14.80;13.27;;;24.30;96.00;;;;;;4958001;28;20391;-83
2023/07/06 00:28:09;;;;;;;20.50;15.18;;;24.30;96.20;;;;;;4971664;28;20468;-82
2023/07/06 00:33:15;;;;;;;19.50;15.38;;;24.10;96.80;;;;;;4950008;28;20042;-83
2023/07/06 00:35:41;;;;;;;17.52;14.50;;;24.10;97.10;;;;;;4969551;28;20123;-83
2023/07/06 00:38:14;;;;;;;18.38;14.48;;;24.00;96.90;;;;;;4940782;28;20030;-83
2023/07/06 00:40:45;;;;;;;18.73;14.85;;;24.10;96.70;;;;;;4946266;28;20411;-83
2023/07/06 00:43:15;;;;;;;17.80;15.65;;;24.00;97.10;;;;;;4942356;28;20045;-83
2023/07/06 00:45:45;;;;;;;21.83;16.98;;;24.00;97.20;;;;;;4968074;28;20035;-83
2023/07/06 00:48:32;;;;;;;19.58;16.83;;;23.90;97.40;;;;;;4964413;28;20056;-83
2023/07/06 00:51:23;;;;;;;26.48;15.98;;;23.80;96.90;;;;;;4970273;28;20031;-83
2023/07/06 00:54:12;;;;;;;21.92;16.17;;;23.80;96.90;;;;;;4955023;28;20031;-82
2023/07/06 00:56:42;;;;;;;20.08;16.88;;;23.80;97.30;;;;;;4964026;28;20031;-82
2023/07/06 00:59:13;;;;;;;20.08;16.25;;;23.80;97.80;;;;;;4958354;28;20443;-83
2023/07/06 01:01:44;;;;;;;19.10;17.10;;;23.80;98.10;;;;;;4975955;28;20042;-83
2023/07/06 01:04:13;;;;;;;23.52;18.02;;;23.70;97.90;;;;;;4962233;28;20388;-83
2023/07/06 01:06:47;;;;;;;22.25;16.38;;;23.70;97.80;;;;;;4937950;28;20118;-83
2023/07/06 01:09:15;;;;;;;22.58;17.48;;;23.70;98.00;;;;;;4966374;28;20110;-83
2023/07/06 01:11:41;;;;;;;21.23;15.70;;;23.70;98.20;;;;;;4948698;28;20108;-83
2023/07/06 01:14:12;;;;;;;22.92;17.60;;;23.70;98.20;;;;;;4948759;28;20089;-82
2023/07/06 01:16:59;;;;;;;18.83;16.75;;;23.60;98.40;;;;;;4948169;28;20023;-83
2023/07/06 01:19:50;;;;;;;20.48;15.75;;;23.60;98.70;;;;;;4941504;28;20050;-82
2023/07/06 01:22:31;;;;;;;22.60;16.50;;;23.60;98.10;;;;;;4971514;28;20035;-83
2023/07/06 01:25:24;;;;;;;19.13;15.82;;;23.60;98.60;;;;;;4983852;23;20039;-79
2023/07/06 01:28:04;;;;;;;22.08;17.20;;;23.60;98.40;;;;;;4956420;28;20043;-79
2023/07/06 01:30:54;;;;;;;22.67;17.52;;;23.50;98.80;;;;;;4974170;28;20069;-79
2023/07/06 01:33:52;;;;;;;22.00;16.25;;;23.50;99.00;;;;;;4974582;28;20169;-80
2023/07/06 01:36:24;;;;;;;19.55;15.45;;;23.50;98.70;;;;;;4921276;29;20042;-80
2023/07/06 01:39:12;;;;;;;20.48;16.15;;;23.60;98.60;;;;;;4937945;29;20023;-79
2023/07/06 01:41:40;;;;;;;19.90;16.38;;;23.60;98.00;;;;;;4938289;29;20171;-79
2023/07/06 01:44:10;;;;;;;21.00;16.75;;;23.60;98.70;;;;;;4918832;29;20496;-79
2023/07/06 01:46:36;;;;;;;17.80;15.80;;;23.60;98.60;;;;;;4918689;29;20607;-79
2023/07/06 01:49:02;;;;;;;19.97;16.40;;;23.60;98.60;;;;;;4918840;29;20107;-79
2023/07/06 01:52:14;;;;;;;17.30;14.82;;;23.60;98.50;;;;;;4919069;29;20032;-79
2023/07/06 01:54:50;;;;;;;17.17;14.40;;;23.50;97.30;;;;;;4898695;29;20040;-79
2023/07/06 01:57:31;;;;;;;19.90;15.20;;;23.50;97.90;;;;;;4946344;29;20373;-79
2023/07/06 02:00:00;;;;;;;27.17;13.43;;;23.50;98.20;;;;;;4937112;29;20122;-79
2023/07/06 02:02:27;;;;;;;13.63;11.85;;;23.50;98.20;;;;;;4937437;29;20027;-80
2023/07/06 02:04:56;;;;;;;17.35;12.65;;;23.50;98.00;;;;;;4937578;29;20050;-80
2023/07/06 02:07:22;;;;;;;16.23;11.73;;;23.40;98.00;;;;;;4937325;29;20035;-80
2023/07/06 02:09:51;;;;;;;18.25;11.57;;;23.40;97.90;;;;;;4937133;29;20035;-80
2023/07/06 02:12:18;;;;;;;12.13;9.88;;;23.40;98.00;;;;;;4953423;29;20038;-80
2023/07/06 02:14:44;;;;;;;15.40;11.48;;;23.50;98.50;;;;;;4937128;29;20027;-80
2023/07/06 02:17:11;;;;;;;13.23;11.80;;;23.40;98.40;;;;;;4937310;29;20400;-80
2023/07/06 02:19:38;;;;;;;14.48;12.10;;;23.40;98.60;;;;;;4921502;29;20031;-80
2023/07/06 02:22:04;;;;;;;16.55;12.02;;;23.50;98.70;;;;;;4922142;29;20408;-80
2023/07/06 02:24:31;;;;;;;12.90;11.27;;;23.50;98.90;;;;;;4902584;29;20031;-80
2023/07/06 02:26:57;;;;;;;;;;;23.50;99.10;;;;;;4932101;29;20496;-80
2023/07/06 02:29:23;;;;;;;18.33;10.73;;;23.40;98.60;;;;;;4936974;29;19918;-80
2023/07/06 02:31:49;;;;;;;15.57;12.13;;;23.40;99.20;;;;;;4936865;29;20029;-80
2023/07/06 02:34:24;;;;;;;12.30;11.00;;;23.40;99.30;;;;;;4953844;29;20543;-80
2023/07/06 02:36:54;;;;;;;15.45;12.68;;;23.40;99.60;;;;;;4936975;29;20027;-80
2023/07/06 02:39:27;;;;;;;15.27;12.23;;;23.50;99.70;;;;;;4952929;29;20127;-80
2023/07/06 02:41:54;;;;;;;15.98;12.05;;;23.50;99.70;;;;;;4953016;29;20046;-80
2023/07/06 02:44:24;;;;;;;19.00;13.52;;;23.40;99.90;;;;;;4936375;29;20122;-80
2023/07/06 02:46:50;;;;;;;16.45;12.40;;;23.40;99.90;;;;;;4936193;29;20577;-80
2023/07/06 02:49:16;;;;;;;18.23;12.93;;;23.40;99.90;;;;;;4954083;29;20035;-80
2023/07/06 02:51:42;;;;;;;14.43;12.47;;;23.40;99.90;;;;;;4927529;29;20190;-81
2023/07/06 02:54:13;;;;;;;14.25;12.18;;;23.40;99.90;;;;;;4933201;29;20067;-80
2023/07/06 02:56:41;;;;;;;15.68;11.88;;;23.40;99.90;;;;;;4950409;29;20031;-80
2023/07/06 02:59:08;;;;;;;12.63;11.32;;;23.40;99.90;;;;;;4936365;29;20432;-80
2023/07/06 03:01:34;;;;;;;;;;;23.30;99.90;;;;;;4936743;29;20115;-80
2023/07/06 03:04:01;;;;;;;12.40;11.05;;;23.30;99.90;;;;;;4936485;29;19921;-80
2023/07/06 03:06:27;;;;;;;11.38;10.18;;;23.30;99.90;;;;;;4936336;29;20070;-80
2023/07/06 03:08:54;;;;;;;12.47;10.77;;;23.30;99.90;;;;;;4920896;29;20440;-80
2023/07/06 03:11:20;;;;;;;12.20;9.60;;;23.30;99.90;;;;;;4911176;29;20040;-80
2023/07/06 03:13:46;;;;;;;11.83;9.50;;;23.30;99.90;;;;;;4932832;29;20023;-80
2023/07/06 03:16:11;;;;;;;15.57;10.17;;;23.30;99.90;;;;;;4935820;29;20074;-79
2023/07/06 03:18:40;;;;;;;12.30;10.70;;;23.30;99.90;;;;;;4926106;29;20027;-79
2023/07/06 03:21:06;;;;;;;13.55;10.65;;;23.30;99.90;;;;;;4902098;29;20098;-80
2023/07/06 03:23:32;;;;;;;14.60;10.77;;;23.30;99.90;;;;;;4928007;29;20079;-80
2023/07/06 03:25:58;;;;;;;12.57;9.80;;;23.30;99.90;;;;;;4953582;28;20030;-80
2023/07/06 03:28:24;;;;;;;11.27;9.17;;;23.30;99.90;;;;;;4953112;29;20042;-80
2023/07/06 03:30:57;;;;;;;14.07;9.87;;;23.30;99.90;;;;;;4923671;29;20062;-80
2023/07/06 03:33:24;;;;;;;10.82;8.63;;;23.30;99.90;;;;;;4937642;29;20038;-80
2023/07/06 03:35:54;;;;;;;14.07;9.43;;;23.30;99.90;;;;;;4953334;29;20025;-80
2023/07/06 03:38:21;;;;;;;11.27;9.45;;;23.40;99.90;;;;;;4920095;29;20067;-79
2023/07/06 03:40:51;;;;;;;10.57;9.48;;;23.30;99.90;;;;;;4936181;29;20023;-79
2023/07/06 03:43:17;;;;;;;11.75;10.15;;;23.30;99.90;;;;;;4936090;29;20027;-79
2023/07/06 03:45:47;;;;;;;11.07;9.32;;;23.30;99.90;;;;;;4932197;29;20035;-79
2023/07/06 03:48:16;;;;;;;13.77;9.82;;;23.30;99.70;;;;;;4935334;29;20452;-80
2023/07/06 03:50:43;;;;;;;12.82;9.68;;;23.30;99.90;;;;;;4936376;29;20030;-81
2023/07/06 03:53:10;;;;;;;12.13;10.30;;;23.30;99.90;;;;;;4933514;29;20407;-82
2023/07/06 03:55:37;;;;;;;14.30;10.30;;;23.30;99.90;;;;;;4927343;29;20400;-80
2023/07/06 03:58:03;;;;;;;13.20;8.60;;;23.30;99.90;;;;;;4952118;29;20058;-80
2023/07/06 04:00:29;;;;;;;11.90;9.77;;;23.30;99.90;;;;;;4935711;29;20035;-79
2023/07/06 04:02:57;;;;;;;18.77;10.03;;;23.30;99.90;;;;;;4936504;28;20062;-79
2023/07/06 04:05:32;;;;;;;13.05;10.18;;;23.30;99.90;;;;;;4920941;29;20039;-79
2023/07/06 04:08:03;;;;;;;13.45;9.93;;;23.30;99.80;;;;;;4920522;29;20471;-80
2023/07/06 04:10:31;;;;;;;11.15;8.95;;;23.40;99.70;;;;;;4938801;29;20039;-80
2023/07/06 04:12:57;;;;;;;12.15;9.50;;;23.30;99.80;;;;;;4957642;29;20035;-80
2023/07/06 04:15:23;;;;;;;13.73;10.30;;;23.30;99.90;;;;;;4939730;29;20058;-79
2023/07/06 04:17:52;;;;;;;13.10;10.82;;;23.30;99.90;;;;;;4960996;29;20061;-80
2023/07/06 04:20:26;;;;;;;16.13;10.77;;;23.20;99.90;;;;;;4944750;29;20043;-80
2023/07/06 04:22:54;;;;;;;10.82;9.63;;;23.20;99.60;;;;;;4940340;29;20035;-79
2023/07/06 04:25:29;;;;;;;12.98;9.38;;;23.20;99.90;;;;;;4924100;29;20035;-80
2023/07/06 04:27:56;;;;;;;14.93;8.88;;;23.20;99.90;;;;;;4957327;29;20439;-79
2023/07/06 04:30:22;;;;;;;9.70;7.50;;;23.20;99.70;;;;;;4957496;29;20428;-79
2023/07/06 04:32:49;;;;;;;13.93;7.53;;;23.20;99.50;;;;;;4940626;29;20094;-79
2023/07/06 04:35:17;;;;;;;11.88;7.35;;;23.10;99.40;;;;;;4957727;28;20290;-79
2023/07/06 04:37:48;;;;;;;13.77;6.85;;;23.10;99.30;;;;;;4939876;29;20039;-79
2023/07/06 04:40:18;;;;;;;9.82;6.53;;;23.10;99.10;;;;;;4940459;28;20031;-80
2023/07/06 04:42:46;;;;;;;7.55;5.72;;;23.20;99.00;;;;;;4957597;29;20039;-80
2023/07/06 04:45:13;;;;;;;7.00;5.65;;;23.20;98.70;;;;;;4940014;29;20030;-80
2023/07/06 04:47:40;;;;;;;9.68;5.72;;;23.20;98.60;;;;;;4939709;29;20447;-79
2023/07/06 04:50:09;;;;;;;7.40;5.40;;;23.30;98.50;;;;;;4940375;29;20032;-79
2023/07/06 04:52:37;;;;;;;7.40;5.50;;;23.40;98.20;;;;;;4941157;29;20031;-79
2023/07/06 04:55:05;;;;;;;5.60;4.78;;;23.40;98.00;;;;;;4957512;28;20031;-79
2023/07/06 04:57:31;;;;;;;5.90;5.30;;;23.50;97.90;;;;;;4957425;28;20404;-79
2023/07/06 04:59:57;;;;;;;7.38;5.55;;;23.60;97.80;;;;;;4939603;29;20035;-80
2023/07/06 05:02:23;;;;;;;9.03;5.50;;;23.60;97.60;;;;;;4956787;29;20035;-80
2023/07/06 05:04:51;;;;;;;6.63;5.15;;;23.70;97.40;;;;;;4939935;28;20031;-80
2023/07/06 05:07:18;;;;;;;7.63;5.38;;;23.70;97.20;;;;;;4940796;29;20057;-79
2023/07/06 05:09:47;;;;;;;8.10;5.53;;;23.70;97.10;;;;;;4957058;29;20030;-79
2023/07/06 05:12:14;;;;;;;7.45;5.10;;;23.70;97.10;;;;;;4956967;29;20031;-79
2023/07/06 05:14:40;;;;;;;9.38;5.70;;;23.80;97.00;;;;;;4939857;28;20035;-79
2023/07/06 05:17:06;;;;;;;6.40;5.50;;;23.80;97.10;;;;;;4956605;28;20034;-79
2023/07/06 05:19:32;;;;;;;6.90;5.17;;;23.90;96.90;;;;;;4957550;28;20742;-80
2023/07/06 05:21:58;;;;;;;10.55;6.30;;;24.00;96.80;;;;;;4956222;28;20407;-80
2023/07/06 05:24:24;;;;;;;7.80;5.83;;;24.00;96.70;;;;;;4956884;29;20027;-79
2023/07/06 05:26:50;;;;;;;8.63;6.25;;;23.90;96.80;;;;;;4956496;28;20369;-79
2023/07/06 05:29:16;;;;;;;6.60;5.30;;;24.00;96.90;;;;;;4942196;29;20424;-79
2023/07/06 05:31:44;;;;;;;11.50;6.37;;;24.00;97.00;;;;;;4960290;29;20028;-80
2023/07/06 05:34:10;;;;;;;6.00;5.28;;;24.00;96.70;;;;;;4939548;29;20050;-80
2023/07/06 05:36:39;;;;;;;9.70;5.77;;;24.10;96.70;;;;;;4940270;29;20457;-79
2023/07/06 05:39:07;;;;;;;8.10;5.38;;;24.10;96.70;;;;;;4943031;29;20035;-79
2023/07/06 05:41:33;;;;;;;10.80;5.82;;;24.10;96.70;;;;;;4956871;28;20038;-79
2023/07/06 05:43:59;;;;;;;7.13;5.47;;;24.10;96.60;;;;;;4940003;29;20027;-80
2023/07/06 05:46:25;;;;;;;6.37;5.20;;;24.10;96.50;;;;;;4939076;29;20488;-79
2023/07/06 05:48:53;;;;;;;7.57;5.13;;;24.00;96.40;;;;;;4923222;29;20102;-80
2023/07/06 05:51:19;;;;;;;7.43;5.45;;;24.00;96.40;;;;;;4956931;29;20306;-80
2023/07/06 05:53:48;;;;;;;7.95;5.22;;;24.00;96.30;;;;;;4957575;28;20032;-80
2023/07/06 05:56:15;;;;;;;8.65;5.93;;;23.90;96.40;;;;;;4956797;28;20035;-80
2023/07/06 05:58:42;;;;;;;;;;;23.90;96.30;;;;;;4940259;29;20031;-80
2023/07/06 06:01:08;;;;;;;7.50;4.70;;;23.90;95.80;;;;;;4939618;29;20061;-80
2023/07/06 06:03:35;;;;;;;6.70;4.93;;;23.90;96.20;;;;;;4939418;28;20500;-80
2023/07/06 06:06:01;;;;;;;10.52;5.50;;;23.90;96.20;;;;;;4938895;29;20019;-80
2023/07/06 06:08:28;;;;;;;11.00;6.10;;;24.00;96.10;;;;;;4956014;29;20032;-79
2023/07/06 06:10:55;;;;;;;;;;;23.90;96.10;;;;;;4939331;29;20074;-79
2023/07/06 06:13:22;;;;;;;9.77;6.03;;;23.90;96.00;;;;;;4939543;29;19938;-79
2023/07/06 06:15:47;;;;;;;7.90;5.97;;;23.90;96.50;;;;;;4957451;28;20028;-79
2023/07/06 06:18:14;;;;;;;12.27;6.77;;;23.90;96.70;;;;;;4940151;29;20444;-79
2023/07/06 06:20:42;;;;;;;9.32;6.47;;;23.80;97.20;;;;;;4956555;28;20031;-80
2023/07/06 06:23:10;;;;;;;11.50;5.95;;;23.80;97.30;;;;;;4957292;28;20031;-79
2023/07/06 06:25:39;;;;;;;8.95;5.75;;;23.80;97.30;;;;;;4956125;28;20070;-79
2023/07/06 06:28:08;;;;;;;8.23;5.97;;;23.80;96.90;;;;;;4938217;29;20527;-79
2023/07/06 06:30:38;;;;;;;7.55;6.20;;;23.80;97.10;;;;;;4955877;29;20027;-79
2023/07/06 06:33:05;;;;;;;10.02;5.72;;;23.80;97.20;;;;;;4938221;29;20042;-79
2023/07/06 06:35:33;;;;;;;5.30;4.78;;;23.80;97.30;;;;;;4955916;28;20031;-79
2023/07/06 06:38:03;;;;;;;8.60;4.75;;;23.80;97.10;;;;;;4938137;29;20043;-79
2023/07/06 06:40:31;;;;;;;12.40;4.80;;;23.80;96.90;;;;;;4955581;28;20027;-80
2023/07/06 06:42:57;;;;;;;9.80;5.13;;;23.90;96.60;;;;;;4955223;28;20039;-80
2023/07/06 06:45:23;;;;;;;5.18;4.63;;;23.90;96.30;;;;;;4955674;28;20510;-80
2023/07/06 06:47:50;;;;;;;8.10;5.32;;;24.00;96.20;;;;;;4955894;28;20045;-79
2023/07/06 06:50:19;;;;;;;8.18;4.75;;;24.00;96.60;;;;;;4956277;29;20027;-79
2023/07/06 06:52:45;;;;;;;7.82;5.18;;;24.10;96.70;;;;;;4938308;29;20031;-80
2023/07/06 06:55:11;;;;;;;7.93;4.57;;;24.10;96.70;;;;;;4954963;28;20023;-80
2023/07/06 06:57:38;;;;;;;5.10;4.67;;;24.30;96.30;;;;;;4937794;29;20090;-80
2023/07/06 07:00:09;;;;;;;6.32;4.35;;;24.40;96.10;;;;;;4955232;28;20551;-80
2023/07/06 07:02:38;;;;;;;9.43;4.00;;;24.50;95.70;;;;;;4956055;28;20052;-80
2023/07/06 07:05:09;;;;;;;8.13;3.80;;;24.70;95.30;;;;;;4955809;28;20472;-80
2023/07/06 07:07:38;;;;;;;6.05;3.38;;;24.70;94.00;;;;;;4938636;29;20035;-80
2023/07/06 07:10:09;;;;;;;3.83;2.90;;;24.80;93.60;;;;;;4956176;29;20549;-80
2023/07/06 07:12:37;;;;;;;4.82;2.67;;;24.90;92.90;;;;;;4938845;29;20028;-80
2023/07/06 07:15:04;;;;;;;3.88;2.78;;;24.90;92.40;;;;;;4955811;28;20077;-80
2023/07/06 07:17:30;;;;;;;4.18;2.42;;;24.90;92.50;;;;;;4922484;29;20036;-79
2023/07/06 07:19:56;;;;;;;4.20;2.33;;;25.00;92.00;;;;;;4954998;29;20431;-80
2023/07/06 07:22:22;;;;;;;5.80;2.60;;;25.10;91.50;;;;;;4955592;29;20415;-80
2023/07/06 14:35:37;;;;;;;3.28;2.00;;;41.60;41.20;;;;;;5626679;23;20086;-83
2023/07/06 14:38:06;;;;;;;1.85;1.73;;;41.70;41.10;;;;;;4936458;29;20039;-85
2023/07/06 14:40:35;;;;;;;4.53;2.30;;;41.70;41.00;;;;;;4954364;29;20031;-85
2023/07/06 14:43:01;;;;;;;2.78;1.98;;;41.90;41.20;;;;;;4921302;29;20428;-87
2023/07/06 14:45:27;;;;;;;3.25;2.25;;;41.90;39.00;;;;;;4936979;29;20488;-86
2023/07/06 14:47:53;;;;;;;6.15;2.00;;;41.70;40.20;;;;;;5013158;23;20046;-81
2023/07/06 14:50:21;;;;;;;3.60;1.50;;;41.60;40.90;;;;;;4999038;28;20034;-80
2023/07/06 14:52:50;;;;;;;3.10;1.50;;;41.20;41.10;;;;;;4997001;28;20038;-80
2023/07/06 14:55:16;;;;;;;1.85;1.65;;;40.40;41.80;;;;;;4998464;28;20030;-81
2023/07/06 14:57:44;;;;;;;2.75;1.88;;;39.30;42.50;;;;;;4990636;28;20065;-81
2023/07/06 15:00:11;;;;;;;5.68;2.17;;;37.90;43.20;;;;;;4976331;28;20030;-80
2023/07/06 15:02:41;;;;;;;2.13;1.92;;;37.10;45.00;;;;;;4958739;28;20027;-80
2023/07/06 15:05:08;;;;;;;2.15;1.90;;;36.20;46.80;;;;;;4960358;28;20023;-80
2023/07/06 15:07:35;;;;;;;2.70;1.42;;;35.60;47.40;;;;;;4976646;28;20031;-80
2023/07/06 15:10:01;;;;;;;3.63;1.92;;;35.10;48.70;;;;;;4976603;28;20062;-81
2023/07/06 15:12:27;;;;;;;2.00;1.70;;;34.60;48.80;;;;;;4958501;28;20038;-81
2023/07/06 15:14:52;;;;;;;3.38;2.05;;;34.20;49.30;;;;;;4960873;28;20062;-82
2023/07/06 15:17:18;;;;;;;4.93;1.90;;;33.80;48.90;;;;;;4976499;28;20039;-81
2023/07/06 15:19:45;;;;;;;3.80;1.67;;;33.40;49.70;;;;;;4959917;28;20038;-81
2023/07/06 15:22:11;;;;;;;;;;;33.40;50.10;;;;;;4945345;28;20031;-81
2023/07/06 15:24:36;;;;;;;3.72;1.67;;;33.20;51.50;;;;;;4979059;28;20389;-81
2023/07/06 15:27:03;;;;;;;2.10;1.70;;;32.80;50.90;;;;;;4978080;28;20049;-81
2023/07/06 15:29:29;;;;;;;4.85;2.00;;;32.70;51.90;;;;;;4961383;28;20447;-81
2023/07/06 15:31:55;;;;;;;2.15;1.65;;;32.50;53.00;;;;;;4959530;28;20031;-81
2023/07/06 15:34:21;;;;;;;;;;;32.50;52.50;;;;;;4978561;28;20452;-81
2023/07/06 15:36:47;;;;;;;1.40;1.30;;;32.30;52.70;;;;;;4975806;28;20399;-81
2023/07/06 15:39:13;;;;;;;3.80;1.73;;;32.30;53.10;;;;;;4976718;28;20093;-81
2023/07/06 15:41:39;;;;;;;3.10;1.83;;;32.30;52.00;;;;;;4977065;28;20035;-81
2023/07/06 15:44:06;;;;;;;2.95;1.90;;;32.20;53.20;;;;;;4977630;28;20023;-81
2023/07/06 15:46:32;;;;;;;;;;;32.20;53.40;;;;;;4977212;28;20110;-81
2023/07/06 15:48:59;;;;;;;3.15;2.03;;;32.10;53.00;;;;;;4973762;28;19913;-81
2023/07/06 15:51:25;;;;;;;2.25;1.42;;;32.00;52.90;;;;;;4957324;28;20035;-81
2023/07/06 15:53:51;;;;;;;2.08;1.83;;;32.10;54.10;;;;;;4974686;28;20034;-81
2023/07/06 15:56:17;;;;;;;3.72;1.98;;;32.10;53.30;;;;;;4958225;28;20039;-82
2023/07/06 15:59:03;;;;;;;6.32;2.55;;;31.90;53.30;;;;;;4974950;28;20396;-80
2023/07/06 16:01:29;;;;;;;5.30;2.03;;;31.70;54.30;;;;;;4976638;28;20081;-81
2023/07/06 16:03:55;;;;;;;;;;;31.80;54.20;;;;;;4964724;28;20037;-81
2023/07/06 16:06:23;;;;;;;3.15;2.05;;;31.50;54.10;;;;;;4980705;28;19910;-81
2023/07/06 16:08:49;;;;;;;2.72;1.45;;;31.50;54.60;;;;;;4981142;28;20027;-81
2023/07/06 16:11:35;;;;;;;3.13;2.17;;;31.50;54.70;;;;;;4968967;28;20031;-81
2023/07/06 16:14:01;;;;;;;2.92;1.80;;;31.50;55.30;;;;;;4962577;28;20031;-81
2023/07/06 16:16:27;;;;;;;2.45;1.67;;;31.60;55.30;;;;;;4987200;28;20033;-81
2023/07/06 16:18:53;;;;;;;3.13;1.60;;;31.50;53.60;;;;;;4983375;28;20431;-81
2023/07/06 16:21:19;;;;;;;2.20;1.77;;;31.50;52.90;;;;;;4969829;28;20059;-80
2023/07/06 16:23:46;;;;;;;2.30;1.90;;;31.40;52.50;;;;;;4945213;28;20446;-81
2023/07/06 16:26:16;;;;;;;2.65;1.60;;;31.30;53.20;;;;;;4961101;28;20102;-80
2023/07/06 16:28:45;;;;;;;2.05;1.45;;;31.20;53.50;;;;;;4992946;28;20042;-81
2023/07/06 16:31:12;;;;;;;1.90;1.30;;;31.10;53.80;;;;;;4991742;28;20041;-81
2023/07/06 16:33:42;;;;;;;2.42;1.75;;;31.00;54.30;;;;;;4959524;28;20081;-80
2023/07/06 16:36:09;;;;;;;2.80;1.70;;;30.80;55.10;;;;;;4973654;28;20109;-81
2023/07/06 16:38:35;;;;;;;3.10;1.90;;;30.80;55.40;;;;;;4958516;28;20039;-81
2023/07/06 16:41:07;;;;;;;2.40;1.83;;;30.60;54.80;;;;;;4952561;28;20073;-81
2023/07/06 16:43:34;;;;;;;3.17;1.73;;;30.50;55.40;;;;;;4960235;28;20062;-81
2023/07/06 16:46:00;;;;;;;1.80;1.50;;;30.40;56.30;;;;;;4976937;28;20094;-81
2023/07/06 16:48:25;;;;;;;4.13;1.88;;;30.30;56.70;;;;;;4975774;28;20079;-81
2023/07/06 16:50:55;;;;;;;2.50;1.63;;;30.20;57.00;;;;;;4975671;28;20050;-81
2023/07/06 16:53:25;;;;;;;2.03;1.73;;;30.20;57.30;;;;;;4958538;28;20034;-81
2023/07/06 16:55:51;;;;;;;2.38;1.73;;;30.10;57.20;;;;;;4974720;28;20030;-81
2023/07/06 16:58:17;;;;;;;4.68;1.92;;;30.10;57.60;;;;;;4975284;28;20066;-81
2023/07/06 17:00:44;;;;;;;2.30;1.80;;;30.10;57.80;;;;;;4975271;28;20057;-81
2023/07/06 17:03:11;;;;;;;2.72;1.75;;;30.00;57.50;;;;;;4957976;28;20098;-81
2023/07/06 17:05:37;;;;;;;5.05;2.33;;;29.90;58.40;;;;;;4942213;28;20027;-81
2023/07/06 17:08:04;;;;;;;2.75;1.85;;;29.70;58.60;;;;;;4958158;28;20114;-81
2023/07/06 17:10:30;;;;;;;4.40;2.40;;;29.70;59.40;;;;;;4975265;28;20026;-80
2023/07/06 17:12:56;;;;;;;2.08;1.85;;;29.70;59.40;;;;;;4975426;28;20082;-81
2023/07/06 17:15:22;;;;;;;2.60;2.28;;;29.80;60.10;;;;;;4957895;28;20380;-81
2023/07/06 17:17:48;;;;;;;4.25;2.78;;;29.70;59.70;;;;;;4956971;28;20121;-81
2023/07/06 17:20:14;;;;;;;2.45;1.88;;;29.70;59.60;;;;;;4958398;28;20030;-81
2023/07/06 17:22:40;;;;;;;2.30;2.08;;;29.70;60.00;;;;;;4981310;28;20035;-81
2023/07/06 17:25:06;;;;;;;2.72;2.20;;;29.70;59.90;;;;;;4961116;28;20404;-81
2023/07/06 17:27:32;;;;;;;3.55;2.10;;;29.60;60.60;;;;;;4960776;28;20031;-81
2023/07/06 17:29:58;;;;;;;3.57;2.17;;;29.50;60.70;;;;;;4977723;28;20084;-80
2023/07/06 17:32:24;;;;;;;3.40;2.20;;;29.60;61.90;;;;;;4978297;28;20035;-81
2023/07/06 17:34:50;;;;;;;3.13;2.10;;;29.50;61.70;;;;;;4978758;28;20062;-81
2023/07/06 17:37:16;;;;;;;3.90;2.05;;;29.50;61.50;;;;;;4960979;28;20289;-80
2023/07/06 17:39:42;;;;;;;2.15;1.88;;;29.60;61.30;;;;;;4943788;28;20039;-81
2023/07/06 17:42:10;;;;;;;8.95;2.08;;;29.50;61.50;;;;;;4978377;28;20417;-81
2023/07/06 17:44:35;;;;;;;3.90;2.20;;;29.60;61.80;;;;;;4973398;28;20499;-81
2023/07/06 17:47:01;;;;;;;3.90;2.60;;;29.30;61.20;;;;;;4976772;28;20027;-80
2023/07/06 17:49:27;;;;;;;3.90;2.55;;;29.20;62.10;;;;;;4978309;28;20031;-79
2023/07/06 17:51:53;;;;;;;2.72;2.08;;;29.30;62.60;;;;;;4977918;28;20027;-80
2023/07/06 17:54:19;;;;;;;4.13;2.42;;;29.40;62.80;;;;;;4960347;28;20507;-80
2023/07/06 17:56:45;;;;;;;3.95;2.35;;;29.40;62.20;;;;;;4977384;28;20034;-81
2023/07/06 17:59:11;;;;;;;192.02;76.55;;;29.40;61.60;;;;;;4977301;28;20082;-81
2023/07/06 18:01:37;;;;;;;3.27;2.67;;;29.30;62.50;;;;;;4976215;28;20118;-82
2023/07/06 18:04:03;;;;;;;3.50;2.13;;;29.10;62.70;;;;;;4957590;28;20027;-82
2023/07/06 18:06:29;;;;;;;3.03;2.65;;;28.90;63.80;;;;;;4970938;28;20033;-82
2023/07/06 18:08:55;;;;;;;3.65;2.70;;;28.80;64.80;;;;;;4975258;28;20026;-82
2023/07/06 18:11:20;;;;;;;3.65;2.72;;;28.80;65.50;;;;;;4980620;28;20019;-83
2023/07/06 18:13:46;;;;;;;7.60;2.95;;;28.70;65.40;;;;;;4958921;28;20466;-83
2023/07/06 18:16:12;;;;;;;6.87;3.27;;;28.50;65.60;;;;;;4956624;28;20031;-82
2023/07/06 18:18:38;;;;;;;4.83;3.07;;;28.50;66.20;;;;;;4943076;28;20038;-81
2023/07/06 18:21:04;;;;;;;3.37;2.70;;;28.40;65.90;;;;;;4966483;28;20278;-81
2023/07/06 18:23:30;;;;;;;3.17;2.70;;;28.30;66.70;;;;;;4982302;28;20278;-82
2023/07/06 18:25:59;;;;;;;5.17;3.20;;;28.10;67.10;;;;;;4978745;28;20053;-81
2023/07/06 18:28:25;;;;;;;3.97;3.10;;;28.00;68.20;;;;;;4964949;28;20283;-81
2023/07/06 18:30:50;;;;;;;3.03;2.37;;;27.90;68.40;;;;;;4973954;28;20033;-81
2023/07/06 18:33:16;;;;;;;4.72;3.22;;;27.80;69.10;;;;;;4977089;28;20062;-81
2023/07/06 18:35:48;;;;;;;4.45;3.20;;;27.70;69.50;;;;;;4960566;28;20407;-81
2023/07/06 18:38:14;;;;;;;6.55;4.35;;;27.50;69.50;;;;;;4976959;28;20459;-81
2023/07/06 18:40:40;;;;;;;5.85;4.45;;;27.50;70.00;;;;;;4971491;28;20048;-81
2023/07/06 18:43:07;;;;;;;4.25;3.70;;;27.50;70.70;;;;;;4977574;28;20110;-81
2023/07/06 18:45:33;;;;;;;;;;;27.40;70.60;;;;;;4986255;28;20169;-81
2023/07/06 18:47:58;;;;;;;3.85;3.13;;;27.40;71.30;;;;;;4960171;28;20402;-81
2023/07/06 18:50:24;;;;;;;3.28;2.70;;;27.30;71.00;;;;;;4960130;28;20027;-81
2023/07/06 18:52:50;;;;;;;3.60;2.77;;;27.20;71.30;;;;;;4958724;28;20062;-81
2023/07/06 18:55:18;;;;;;;3.60;3.00;;;27.10;71.40;;;;;;4975933;28;20027;-81
2023/07/06 18:57:44;;;;;;;5.13;2.90;;;27.10;72.20;;;;;;4977173;28;20026;-82
2023/07/06 19:00:10;;;;;;;3.50;2.58;;;27.00;73.20;;;;;;4977540;28;20177;-81
2023/07/06 19:02:36;;;;;;;3.40;2.67;;;26.90;73.60;;;;;;4959924;28;20035;-81
2023/07/06 19:05:03;;;;;;;5.13;3.73;;;26.90;74.70;;;;;;4966289;28;20061;-81
2023/07/06 19:07:29;;;;;;;5.07;3.75;;;26.80;74.70;;;;;;4959107;28;20085;-81
2023/07/06 19:09:55;;;;;;;4.07;3.23;;;26.70;76.00;;;;;;4943267;28;20030;-81
2023/07/06 19:12:21;;;;;;;4.75;3.10;;;26.60;76.30;;;;;;4977419;28;20027;-81
2023/07/06 19:14:47;;;;;;;6.35;3.22;;;26.50;77.10;;;;;;4973174;28;20027;-81
2023/07/06 19:17:14;;;;;;;5.10;3.27;;;26.50;77.60;;;;;;4957780;28;20043;-81
2023/07/06 19:19:40;;;;;;;4.60;3.17;;;26.40;79.20;;;;;;4975560;28;20270;-81
2023/07/06 19:22:06;;;;;;;4.97;3.33;;;26.30;80.30;;;;;;4967182;28;20462;-81
2023/07/06 19:24:33;;;;;;;6.18;3.53;;;26.10;80.70;;;;;;4959236;28;20023;-82
2023/07/06 19:26:59;;;;;;;4.82;3.50;;;26.00;81.40;;;;;;4971834;28;20085;-82
2023/07/06 19:29:26;;;;;;;7.20;3.30;;;25.90;82.60;;;;;;4973116;28;20034;-80
2023/07/06 19:31:51;;;;;;;5.50;4.50;;;25.90;83.20;;;;;;4975466;28;20015;-81
2023/07/06 19:34:19;;;;;;;6.20;4.20;;;25.80;83.30;;;;;;4975866;28;20031;-81
2023/07/06 19:36:45;;;;;;;5.63;4.30;;;25.70;84.80;;;;;;4968980;28;20027;-81
2023/07/06 19:39:10;;;;;;;4.70;3.70;;;25.50;85.70;;;;;;4973802;28;20082;-81
2023/07/06 19:41:36;;;;;;;5.67;3.90;;;25.50;86.60;;;;;;4979444;28;20046;-80
2023/07/06 19:44:02;;;;;;;6.73;4.23;;;25.50;87.70;;;;;;4978973;28;20026;-81
2023/07/06 19:46:28;;;;;;;6.57;3.80;;;25.50;87.60;;;;;;4943531;28;20398;-81
2023/07/06 19:48:54;;;;;;;5.37;4.13;;;25.40;88.60;;;;;;4981605;28;20065;-81
2023/07/06 19:51:22;;;;;;;9.07;5.27;;;25.30;89.50;;;;;;4973358;28;20027;-80
2023/07/06 19:53:51;;;;;;;6.93;4.40;;;25.30;89.30;;;;;;4980197;28;20162;-81
2023/07/06 19:56:21;;;;;;;6.18;4.20;;;25.30;89.20;;;;;;4961287;28;20035;-81
2023/07/06 19:58:47;;;;;;;6.43;4.28;;;25.20;89.50;;;;;;4980025;28;20062;-81
2023/07/06 20:01:16;;;;;;;5.85;5.22;;;25.10;89.80;;;;;;4979660;28;20484;-81